sensor_id;sensor_type;location;lat;lon;timestamp;P1;durP1;ratioP1;P2;durP2;ratioP2
65009;SDS011;51556;50.002;22.014;2022-09-21T00:00:32;8.20;;;5.70;;
65009;SDS011;51556;50.002;22.014;2022-09-21T00:02:58;7.90;;;5.80;;
65009;SDS011;51556;50.002;22.014;2022-09-21T00:05:24;9.80;;;5.70;;
65009;SDS011;51556;50.002;22.014;2022-09-21T00:07:50;7.50;;;5.30;;
65009;SDS011;51556;50.002;22.014;2022-09-21T00:10:16;7.90;;;5.10;;
65009;SDS011;51556;50.002;22.014;2022-09-21T00:12:44;7.90;;;5.40;;
65009;SDS011;51556;50.002;22.014;2022-09-21T00:15:12;8.00;;;5.70;;
65009;SDS011;51556;50.002;22.014;2022-09-21T00:17:39;8.50;;;5.00;;
65009;SDS011;51556;50.002;22.014;2022-09-21T00:20:05;8.20;;;5.20;;
65009;SDS011;51556;50.002;22.014;2022-09-21T00:22:31;9.60;;;5.80;;
65009;SDS011;51556;50.002;22.014;2022-09-21T00:24:58;9.20;;;5.50;;
65009;SDS011;51556;50.002;22.014;2022-09-21T00:27:25;8.10;;;5.60;;
65009;SDS011;51556;50.002;22.014;2022-09-21T00:29:57;9.10;;;5.40;;
65009;SDS011;51556;50.002;22.014;2022-09-21T00:32:28;8.00;;;5.10;;
65009;SDS011;51556;50.002;22.014;2022-09-21T00:34:58;8.00;;;5.30;;
65009;SDS011;51556;50.002;22.014;2022-09-21T00:37:25;9.10;;;5.40;;
65009;SDS011;51556;50.002;22.014;2022-09-21T00:39:52;8.10;;;5.30;;
65009;SDS011;51556;50.002;22.014;2022-09-21T00:42:19;7.70;;;5.70;;
65009;SDS011;51556;50.002;22.014;2022-09-21T00:44:53;8.30;;;5.90;;
65009;SDS011;51556;50.002;22.014;2022-09-21T00:47:21;8.20;;;5.20;;
65009;SDS011;51556;50.002;22.014;2022-09-21T00:49:51;9.20;;;5.50;;
65009;SDS011;51556;50.002;22.014;2022-09-21T00:52:19;11.00;;;5.70;;
65009;SDS011;51556;50.002;22.014;2022-09-21T00:54:50;11.40;;;5.40;;
65009;SDS011;51556;50.002;22.014;2022-09-21T00:57:19;7.50;;;5.10;;
65009;SDS011;51556;50.002;22.014;2022-09-21T00:59:49;7.20;;;5.30;;
65009;SDS011;51556;50.002;22.014;2022-09-21T01:02:17;8.40;;;5.50;;
65009;SDS011;51556;50.002;22.014;2022-09-21T01:04:43;11.80;;;5.70;;
65009;SDS011;51556;50.002;22.014;2022-09-21T01:07:11;11.10;;;5.40;;
65009;SDS011;51556;50.002;22.014;2022-09-21T01:09:42;10.50;;;5.80;;
65009;SDS011;51556;50.002;22.014;2022-09-21T01:21:15;10.20;;;5.40;;
65009;SDS011;51556;50.002;22.014;2022-09-21T01:26:49;10.60;;;6.30;;
65009;SDS011;51556;50.002;22.014;2022-09-21T01:32:08;8.90;;;6.00;;
65009;SDS011;51556;50.002;22.014;2022-09-21T01:34:51;12.10;;;7.00;;
65009;SDS011;51556;50.002;22.014;2022-09-21T01:37:23;11.20;;;7.00;;
65009;SDS011;51556;50.002;22.014;2022-09-21T01:39:54;10.90;;;6.60;;
65009;SDS011;51556;50.002;22.014;2022-09-21T01:42:24;10.80;;;7.80;;
65009;SDS011;51556;50.002;22.014;2022-09-21T01:44:52;12.40;;;6.80;;
65009;SDS011;51556;50.002;22.014;2022-09-21T01:47:23;10.10;;;6.20;;
65009;SDS011;51556;50.002;22.014;2022-09-21T01:49:51;8.60;;;6.40;;
65009;SDS011;51556;50.002;22.014;2022-09-21T01:52:21;10.00;;;6.10;;
65009;SDS011;51556;50.002;22.014;2022-09-21T01:55:16;10.30;;;6.30;;
65009;SDS011;51556;50.002;22.014;2022-09-21T01:57:57;9.20;;;6.40;;
65009;SDS011;51556;50.002;22.014;2022-09-21T02:00:29;8.60;;;6.20;;
65009;SDS011;51556;50.002;22.014;2022-09-21T02:02:58;8.20;;;6.30;;
65009;SDS011;51556;50.002;22.014;2022-09-21T02:05:29;9.50;;;6.10;;
65009;SDS011;51556;50.002;22.014;2022-09-21T02:07:56;9.30;;;6.50;;
65009;SDS011;51556;50.002;22.014;2022-09-21T02:10:27;10.50;;;6.30;;
65009;SDS011;51556;50.002;22.014;2022-09-21T02:12:58;10.00;;;6.70;;
65009;SDS011;51556;50.002;22.014;2022-09-21T02:15:31;9.10;;;6.30;;
65009;SDS011;51556;50.002;22.014;2022-09-21T02:21:06;11.70;;;6.40;;
65009;SDS011;51556;50.002;22.014;2022-09-21T02:29:33;11.90;;;7.30;;
65009;SDS011;51556;50.002;22.014;2022-09-21T02:32:16;9.80;;;6.80;;
65009;SDS011;51556;50.002;22.014;2022-09-21T02:35:12;14.40;;;8.30;;
65009;SDS011;51556;50.002;22.014;2022-09-21T02:40:29;12.20;;;7.00;;
65009;SDS011;51556;50.002;22.014;2022-09-21T02:42:56;12.20;;;7.70;;
65009;SDS011;51556;50.002;22.014;2022-09-21T02:45:45;12.00;;;7.20;;
65009;SDS011;51556;50.002;22.014;2022-09-21T02:48:25;11.40;;;6.90;;
65009;SDS011;51556;50.002;22.014;2022-09-21T02:50:56;10.70;;;7.40;;
65009;SDS011;51556;50.002;22.014;2022-09-21T02:53:28;10.30;;;7.00;;
65009;SDS011;51556;50.002;22.014;2022-09-21T02:55:57;12.50;;;7.60;;
65009;SDS011;51556;50.002;22.014;2022-09-21T02:58:31;11.80;;;7.40;;
65009;SDS011;51556;50.002;22.014;2022-09-21T03:01:09;11.60;;;7.60;;
65009;SDS011;51556;50.002;22.014;2022-09-21T03:03:35;11.20;;;7.50;;
65009;SDS011;51556;50.002;22.014;2022-09-21T03:06:01;12.50;;;8.70;;
65009;SDS011;51556;50.002;22.014;2022-09-21T03:08:26;11.30;;;8.20;;
65009;SDS011;51556;50.002;22.014;2022-09-21T03:10:52;15.60;;;9.00;;
65009;SDS011;51556;50.002;22.014;2022-09-21T03:13:18;13.30;;;7.90;;
65009;SDS011;51556;50.002;22.014;2022-09-21T03:15:44;15.30;;;9.20;;
65009;SDS011;51556;50.002;22.014;2022-09-21T03:18:11;10.70;;;7.80;;
65009;SDS011;51556;50.002;22.014;2022-09-21T03:20:38;13.80;;;9.10;;
65009;SDS011;51556;50.002;22.014;2022-09-21T03:23:05;14.90;;;9.70;;
65009;SDS011;51556;50.002;22.014;2022-09-21T03:25:31;13.30;;;9.80;;
65009;SDS011;51556;50.002;22.014;2022-09-21T03:27:57;14.00;;;9.40;;
65009;SDS011;51556;50.002;22.014;2022-09-21T03:30:24;12.40;;;9.10;;
65009;SDS011;51556;50.002;22.014;2022-09-21T03:32:51;11.50;;;8.20;;
65009;SDS011;51556;50.002;22.014;2022-09-21T03:35:19;14.20;;;9.50;;
65009;SDS011;51556;50.002;22.014;2022-09-21T03:37:46;15.30;;;10.10;;
65009;SDS011;51556;50.002;22.014;2022-09-21T03:40:13;13.40;;;9.50;;
65009;SDS011;51556;50.002;22.014;2022-09-21T03:42:39;13.80;;;9.10;;
65009;SDS011;51556;50.002;22.014;2022-09-21T03:45:06;12.50;;;9.20;;
65009;SDS011;51556;50.002;22.014;2022-09-21T03:47:32;11.20;;;8.70;;
65009;SDS011;51556;50.002;22.014;2022-09-21T03:49:58;11.90;;;9.20;;
65009;SDS011;51556;50.002;22.014;2022-09-21T03:52:24;13.70;;;9.40;;
65009;SDS011;51556;50.002;22.014;2022-09-21T03:54:51;13.40;;;9.50;;
65009;SDS011;51556;50.002;22.014;2022-09-21T03:57:16;14.20;;;9.30;;
65009;SDS011;51556;50.002;22.014;2022-09-21T03:59:42;14.10;;;9.60;;
65009;SDS011;51556;50.002;22.014;2022-09-21T04:02:07;11.20;;;8.60;;
65009;SDS011;51556;50.002;22.014;2022-09-21T04:04:33;13.30;;;7.70;;
65009;SDS011;51556;50.002;22.014;2022-09-21T04:06:59;13.70;;;9.40;;
65009;SDS011;51556;50.002;22.014;2022-09-21T04:09:24;12.80;;;8.90;;
65009;SDS011;51556;50.002;22.014;2022-09-21T04:11:50;11.60;;;8.50;;
65009;SDS011;51556;50.002;22.014;2022-09-21T04:14:18;13.60;;;8.90;;
65009;SDS011;51556;50.002;22.014;2022-09-21T04:16:44;16.10;;;10.40;;
65009;SDS011;51556;50.002;22.014;2022-09-21T04:19:10;10.40;;;7.40;;
65009;SDS011;51556;50.002;22.014;2022-09-21T04:21:36;12.20;;;9.20;;
65009;SDS011;51556;50.002;22.014;2022-09-21T04:24:02;10.40;;;8.60;;
65009;SDS011;51556;50.002;22.014;2022-09-21T04:26:30;10.20;;;7.90;;
65009;SDS011;51556;50.002;22.014;2022-09-21T04:28:58;11.50;;;8.90;;
65009;SDS011;51556;50.002;22.014;2022-09-21T04:31:25;11.00;;;8.60;;
65009;SDS011;51556;50.002;22.014;2022-09-21T04:33:52;10.70;;;8.80;;
65009;SDS011;51556;50.002;22.014;2022-09-21T04:36:20;12.90;;;9.10;;
65009;SDS011;51556;50.002;22.014;2022-09-21T04:38:46;13.70;;;9.40;;
65009;SDS011;51556;50.002;22.014;2022-09-21T04:41:12;20.50;;;10.50;;
65009;SDS011;51556;50.002;22.014;2022-09-21T04:43:42;10.40;;;7.80;;
65009;SDS011;51556;50.002;22.014;2022-09-21T04:46:11;12.20;;;9.30;;
65009;SDS011;51556;50.002;22.014;2022-09-21T04:48:38;11.70;;;9.20;;
65009;SDS011;51556;50.002;22.014;2022-09-21T04:51:05;14.70;;;9.60;;
65009;SDS011;51556;50.002;22.014;2022-09-21T04:53:35;11.70;;;8.90;;
65009;SDS011;51556;50.002;22.014;2022-09-21T04:56:02;12.60;;;8.30;;
65009;SDS011;51556;50.002;22.014;2022-09-21T04:58:29;11.70;;;7.60;;
65009;SDS011;51556;50.002;22.014;2022-09-21T05:00:55;13.40;;;8.60;;
65009;SDS011;51556;50.002;22.014;2022-09-21T05:03:21;12.60;;;9.00;;
65009;SDS011;51556;50.002;22.014;2022-09-21T05:05:48;11.40;;;7.80;;
65009;SDS011;51556;50.002;22.014;2022-09-21T05:08:15;12.70;;;8.50;;
65009;SDS011;51556;50.002;22.014;2022-09-21T05:10:42;11.00;;;7.90;;
65009;SDS011;51556;50.002;22.014;2022-09-21T05:13:08;13.60;;;8.90;;
65009;SDS011;51556;50.002;22.014;2022-09-21T05:15:37;12.30;;;9.10;;
65009;SDS011;51556;50.002;22.014;2022-09-21T05:18:03;12.20;;;9.20;;
65009;SDS011;51556;50.002;22.014;2022-09-21T05:20:29;15.20;;;8.60;;
65009;SDS011;51556;50.002;22.014;2022-09-21T05:22:58;10.20;;;7.20;;
65009;SDS011;51556;50.002;22.014;2022-09-21T05:25:25;14.40;;;10.20;;
65009;SDS011;51556;50.002;22.014;2022-09-21T05:27:51;11.80;;;8.00;;
65009;SDS011;51556;50.002;22.014;2022-09-21T05:30:17;10.90;;;7.00;;
65009;SDS011;51556;50.002;22.014;2022-09-21T05:32:57;13.50;;;8.80;;
65009;SDS011;51556;50.002;22.014;2022-09-21T05:35:39;12.80;;;8.60;;
65009;SDS011;51556;50.002;22.014;2022-09-21T05:38:13;10.90;;;8.60;;
65009;SDS011;51556;50.002;22.014;2022-09-21T05:40:42;11.50;;;7.50;;
65009;SDS011;51556;50.002;22.014;2022-09-21T05:43:09;8.00;;;6.10;;
65009;SDS011;51556;50.002;22.014;2022-09-21T05:45:36;12.10;;;7.80;;
65009;SDS011;51556;50.002;22.014;2022-09-21T05:48:12;13.80;;;7.20;;
65009;SDS011;51556;50.002;22.014;2022-09-21T05:50:50;11.70;;;7.20;;
65009;SDS011;51556;50.002;22.014;2022-09-21T06:04:59;10.70;;;6.20;;
65009;SDS011;51556;50.002;22.014;2022-09-21T06:07:26;10.10;;;6.50;;
65009;SDS011;51556;50.002;22.014;2022-09-21T06:09:52;12.20;;;8.10;;
65009;SDS011;51556;50.002;22.014;2022-09-21T06:12:18;13.30;;;6.90;;
65009;SDS011;51556;50.002;22.014;2022-09-21T06:14:43;10.20;;;6.90;;
65009;SDS011;51556;50.002;22.014;2022-09-21T06:17:09;9.90;;;6.60;;
65009;SDS011;51556;50.002;22.014;2022-09-21T06:19:34;9.10;;;5.90;;
65009;SDS011;51556;50.002;22.014;2022-09-21T06:22:00;11.20;;;7.70;;
65009;SDS011;51556;50.002;22.014;2022-09-21T06:24:26;10.60;;;7.80;;
65009;SDS011;51556;50.002;22.014;2022-09-21T06:26:51;11.10;;;6.60;;
65009;SDS011;51556;50.002;22.014;2022-09-21T06:29:16;12.00;;;7.90;;
65009;SDS011;51556;50.002;22.014;2022-09-21T06:31:47;13.80;;;8.80;;
65009;SDS011;51556;50.002;22.014;2022-09-21T06:34:16;16.90;;;8.50;;
65009;SDS011;51556;50.002;22.014;2022-09-21T06:36:42;14.30;;;9.20;;
65009;SDS011;51556;50.002;22.014;2022-09-21T06:39:09;13.20;;;8.70;;
65009;SDS011;51556;50.002;22.014;2022-09-21T06:41:36;13.80;;;8.70;;
65009;SDS011;51556;50.002;22.014;2022-09-21T06:44:01;14.30;;;8.30;;
65009;SDS011;51556;50.002;22.014;2022-09-21T06:46:27;12.90;;;6.70;;
65009;SDS011;51556;50.002;22.014;2022-09-21T06:48:52;14.30;;;8.50;;
65009;SDS011;51556;50.002;22.014;2022-09-21T06:51:18;11.40;;;8.80;;
65009;SDS011;51556;50.002;22.014;2022-09-21T06:53:45;13.20;;;8.00;;
65009;SDS011;51556;50.002;22.014;2022-09-21T06:56:12;14.70;;;9.00;;
65009;SDS011;51556;50.002;22.014;2022-09-21T06:58:38;12.30;;;8.60;;
65009;SDS011;51556;50.002;22.014;2022-09-21T07:03:33;10.70;;;7.30;;
65009;SDS011;51556;50.002;22.014;2022-09-21T07:05:59;13.50;;;8.70;;
65009;SDS011;51556;50.002;22.014;2022-09-21T07:08:24;28.40;;;17.70;;
65009;SDS011;51556;50.002;22.014;2022-09-21T07:10:51;11.00;;;7.90;;
65009;SDS011;51556;50.002;22.014;2022-09-21T07:13:17;12.20;;;8.20;;
65009;SDS011;51556;50.002;22.014;2022-09-21T07:15:42;12.20;;;8.10;;
65009;SDS011;51556;50.002;22.014;2022-09-21T07:18:11;17.00;;;8.50;;
65009;SDS011;51556;50.002;22.014;2022-09-21T07:20:38;12.00;;;8.20;;
65009;SDS011;51556;50.002;22.014;2022-09-21T07:23:08;13.00;;;7.60;;
65009;SDS011;51556;50.002;22.014;2022-09-21T07:25:40;12.50;;;8.30;;
65009;SDS011;51556;50.002;22.014;2022-09-21T07:28:08;13.10;;;7.90;;
65009;SDS011;51556;50.002;22.014;2022-09-21T07:30:34;11.80;;;7.10;;
65009;SDS011;51556;50.002;22.014;2022-09-21T07:33:01;11.70;;;7.60;;
65009;SDS011;51556;50.002;22.014;2022-09-21T07:35:26;10.50;;;6.90;;
65009;SDS011;51556;50.002;22.014;2022-09-21T07:37:52;18.20;;;10.30;;
65009;SDS011;51556;50.002;22.014;2022-09-21T07:40:20;12.10;;;7.00;;
65009;SDS011;51556;50.002;22.014;2022-09-21T07:42:46;12.70;;;9.20;;
65009;SDS011;51556;50.002;22.014;2022-09-21T07:45:13;11.60;;;7.20;;
65009;SDS011;51556;50.002;22.014;2022-09-21T07:47:39;13.10;;;8.50;;
65009;SDS011;51556;50.002;22.014;2022-09-21T07:50:05;10.70;;;7.30;;
65009;SDS011;51556;50.002;22.014;2022-09-21T07:52:30;9.50;;;6.60;;
65009;SDS011;51556;50.002;22.014;2022-09-21T07:54:56;9.50;;;6.90;;
65009;SDS011;51556;50.002;22.014;2022-09-21T07:57:21;13.20;;;7.40;;
65009;SDS011;51556;50.002;22.014;2022-09-21T08:00:06;11.00;;;6.40;;
65009;SDS011;51556;50.002;22.014;2022-09-21T08:02:33;12.60;;;6.80;;
65009;SDS011;51556;50.002;22.014;2022-09-21T08:04:58;11.90;;;7.50;;
65009;SDS011;51556;50.002;22.014;2022-09-21T08:07:24;11.90;;;6.20;;
65009;SDS011;51556;50.002;22.014;2022-09-21T08:09:50;10.20;;;6.30;;
65009;SDS011;51556;50.002;22.014;2022-09-21T08:12:16;10.60;;;6.60;;
65009;SDS011;51556;50.002;22.014;2022-09-21T08:14:44;9.50;;;6.30;;
65009;SDS011;51556;50.002;22.014;2022-09-21T08:17:11;14.10;;;6.60;;
65009;SDS011;51556;50.002;22.014;2022-09-21T08:19:37;11.20;;;6.50;;
65009;SDS011;51556;50.002;22.014;2022-09-21T08:22:03;9.10;;;6.00;;
65009;SDS011;51556;50.002;22.014;2022-09-21T08:24:29;11.20;;;5.80;;
65009;SDS011;51556;50.002;22.014;2022-09-21T08:26:56;8.60;;;6.00;;
65009;SDS011;51556;50.002;22.014;2022-09-21T08:29:25;9.20;;;6.80;;
65009;SDS011;51556;50.002;22.014;2022-09-21T08:31:50;9.00;;;5.70;;
65009;SDS011;51556;50.002;22.014;2022-09-21T08:34:17;8.50;;;5.80;;
65009;SDS011;51556;50.002;22.014;2022-09-21T08:36:44;7.50;;;5.20;;
65009;SDS011;51556;50.002;22.014;2022-09-21T08:39:10;6.20;;;4.30;;
65009;SDS011;51556;50.002;22.014;2022-09-21T08:46:38;8.10;;;5.10;;
65009;SDS011;51556;50.002;22.014;2022-09-21T08:49:10;8.00;;;5.20;;
65009;SDS011;51556;50.002;22.014;2022-09-21T08:52:02;9.00;;;4.70;;
65009;SDS011;51556;50.002;22.014;2022-09-21T08:57:02;8.30;;;4.90;;
65009;SDS011;51556;50.002;22.014;2022-09-21T08:59:28;7.40;;;4.70;;
65009;SDS011;51556;50.002;22.014;2022-09-21T09:02:03;8.30;;;5.40;;
65009;SDS011;51556;50.002;22.014;2022-09-21T09:05:03;8.00;;;4.70;;
65009;SDS011;51556;50.002;22.014;2022-09-21T09:10:35;9.30;;;5.20;;
65009;SDS011;51556;50.002;22.014;2022-09-21T09:16:17;9.40;;;5.90;;
65009;SDS011;51556;50.002;22.014;2022-09-21T09:21:57;8.20;;;5.20;;
65009;SDS011;51556;50.002;22.014;2022-09-21T09:24:37;9.10;;;4.90;;
65009;SDS011;51556;50.002;22.014;2022-09-21T09:27:29;10.20;;;5.50;;
65009;SDS011;51556;50.002;22.014;2022-09-21T09:30:15;8.70;;;5.00;;
65009;SDS011;51556;50.002;22.014;2022-09-21T09:32:52;8.80;;;5.20;;
65009;SDS011;51556;50.002;22.014;2022-09-21T09:47:35;7.90;;;5.50;;
65009;SDS011;51556;50.002;22.014;2022-09-21T09:50:28;6.90;;;5.30;;
65009;SDS011;51556;50.002;22.014;2022-09-21T09:53:04;7.40;;;5.50;;
65009;SDS011;51556;50.002;22.014;2022-09-21T09:55:39;5.70;;;3.70;;
65009;SDS011;51556;50.002;22.014;2022-09-21T09:58:17;6.30;;;4.00;;
65009;SDS011;51556;50.002;22.014;2022-09-21T10:00:49;6.70;;;4.30;;
65009;SDS011;51556;50.002;22.014;2022-09-21T10:03:18;7.00;;;4.50;;
65009;SDS011;51556;50.002;22.014;2022-09-21T10:05:46;6.50;;;3.70;;
65009;SDS011;51556;50.002;22.014;2022-09-21T10:10:55;5.50;;;3.20;;
65009;SDS011;51556;50.002;22.014;2022-09-21T10:13:32;5.20;;;3.20;;
65009;SDS011;51556;50.002;22.014;2022-09-21T10:16:32;5.60;;;3.70;;
65009;SDS011;51556;50.002;22.014;2022-09-21T10:18:57;4.60;;;3.30;;
65009;SDS011;51556;50.002;22.014;2022-09-21T10:21:34;6.10;;;3.00;;
65009;SDS011;51556;50.002;22.014;2022-09-21T10:29:45;8.00;;;3.10;;
65009;SDS011;51556;50.002;22.014;2022-09-21T10:37:32;6.60;;;3.40;;
65009;SDS011;51556;50.002;22.014;2022-09-21T10:40:02;4.40;;;3.00;;
65009;SDS011;51556;50.002;22.014;2022-09-21T10:42:40;6.70;;;3.20;;
65009;SDS011;51556;50.002;22.014;2022-09-21T10:45:17;4.60;;;2.20;;
65009;SDS011;51556;50.002;22.014;2022-09-21T10:47:51;5.10;;;2.30;;
65009;SDS011;51556;50.002;22.014;2022-09-21T10:50:36;2.90;;;1.90;;
65009;SDS011;51556;50.002;22.014;2022-09-21T10:55:35;2.80;;;2.20;;
65009;SDS011;51556;50.002;22.014;2022-09-21T10:58:02;4.70;;;2.40;;
65009;SDS011;51556;50.002;22.014;2022-09-21T11:03:25;5.50;;;2.80;;
65009;SDS011;51556;50.002;22.014;2022-09-21T11:06:00;4.60;;;3.00;;
65009;SDS011;51556;50.002;22.014;2022-09-21T11:08:37;5.90;;;3.30;;
65009;SDS011;51556;50.002;22.014;2022-09-21T11:13:57;5.90;;;3.00;;
65009;SDS011;51556;50.002;22.014;2022-09-21T11:22:41;3.60;;;2.00;;
65009;SDS011;51556;50.002;22.014;2022-09-21T11:25:27;3.90;;;2.40;;
65009;SDS011;51556;50.002;22.014;2022-09-21T11:28:01;5.50;;;2.90;;
65009;SDS011;51556;50.002;22.014;2022-09-21T11:44:44;6.90;;;4.60;;
65009;SDS011;51556;50.002;22.014;2022-09-21T11:57:54;3.80;;;2.70;;
65009;SDS011;51556;50.002;22.014;2022-09-21T12:00:21;3.90;;;2.90;;
65009;SDS011;51556;50.002;22.014;2022-09-21T12:11:22;3.90;;;2.70;;
65009;SDS011;51556;50.002;22.014;2022-09-21T12:16:49;4.30;;;2.10;;
65009;SDS011;51556;50.002;22.014;2022-09-21T12:19:29;2.20;;;1.50;;
65009;SDS011;51556;50.002;22.014;2022-09-21T12:25:13;4.00;;;1.90;;
65009;SDS011;51556;50.002;22.014;2022-09-21T12:30:44;2.10;;;1.20;;
65009;SDS011;51556;50.002;22.014;2022-09-21T12:35:53;2.70;;;1.50;;
65009;SDS011;51556;50.002;22.014;2022-09-21T12:44:01;3.70;;;1.80;;
65009;SDS011;51556;50.002;22.014;2022-09-21T12:46:36;4.50;;;2.20;;
65009;SDS011;51556;50.002;22.014;2022-09-21T12:49:10;5.20;;;2.70;;
65009;SDS011;51556;50.002;22.014;2022-09-21T12:51:44;3.60;;;2.70;;
65009;SDS011;51556;50.002;22.014;2022-09-21T12:57:03;4.20;;;2.30;;
65009;SDS011;51556;50.002;22.014;2022-09-21T12:59:58;3.80;;;2.60;;
65009;SDS011;51556;50.002;22.014;2022-09-21T13:05:13;4.00;;;2.90;;
65009;SDS011;51556;50.002;22.014;2022-09-21T13:16:24;2.70;;;2.30;;
65009;SDS011;51556;50.002;22.014;2022-09-21T13:19:04;6.70;;;2.70;;
65009;SDS011;51556;50.002;22.014;2022-09-21T13:21:43;2.70;;;2.40;;
65009;SDS011;51556;50.002;22.014;2022-09-21T13:24:30;3.50;;;2.60;;
65009;SDS011;51556;50.002;22.014;2022-09-21T13:26:55;4.40;;;2.70;;
65009;SDS011;51556;50.002;22.014;2022-09-21T13:29:28;4.80;;;2.90;;
65009;SDS011;51556;50.002;22.014;2022-09-21T13:34:41;3.10;;;2.30;;
65009;SDS011;51556;50.002;22.014;2022-09-21T13:47:38;4.40;;;2.60;;
65009;SDS011;51556;50.002;22.014;2022-09-21T13:50:21;3.00;;;2.50;;
65009;SDS011;51556;50.002;22.014;2022-09-21T13:52:50;3.20;;;2.20;;
65009;SDS011;51556;50.002;22.014;2022-09-21T13:57:45;3.20;;;2.60;;
65009;SDS011;51556;50.002;22.014;2022-09-21T14:08:11;4.80;;;2.60;;
65009;SDS011;51556;50.002;22.014;2022-09-21T14:13:33;5.70;;;2.20;;
65009;SDS011;51556;50.002;22.014;2022-09-21T14:18:51;3.20;;;2.20;;
65009;SDS011;51556;50.002;22.014;2022-09-21T14:21:17;3.10;;;2.40;;
65009;SDS011;51556;50.002;22.014;2022-09-21T14:24:18;3.80;;;2.10;;
65009;SDS011;51556;50.002;22.014;2022-09-21T14:26:58;5.50;;;2.50;;
65009;SDS011;51556;50.002;22.014;2022-09-21T14:32:18;2.60;;;2.20;;
65009;SDS011;51556;50.002;22.014;2022-09-21T14:34:48;4.60;;;2.50;;
65009;SDS011;51556;50.002;22.014;2022-09-21T14:37:50;3.10;;;2.40;;
65009;SDS011;51556;50.002;22.014;2022-09-21T14:40:18;5.80;;;2.60;;
65009;SDS011;51556;50.002;22.014;2022-09-21T14:42:51;3.70;;;2.50;;
65009;SDS011;51556;50.002;22.014;2022-09-21T14:45:20;4.00;;;2.60;;
65009;SDS011;51556;50.002;22.014;2022-09-21T14:48:32;3.20;;;2.60;;
65009;SDS011;51556;50.002;22.014;2022-09-21T15:04:58;4.10;;;2.50;;
65009;SDS011;51556;50.002;22.014;2022-09-21T15:07:32;3.80;;;2.50;;
65009;SDS011;51556;50.002;22.014;2022-09-21T15:10:25;5.60;;;3.20;;
65009;SDS011;51556;50.002;22.014;2022-09-21T15:15:59;4.60;;;2.90;;
65009;SDS011;51556;50.002;22.014;2022-09-21T15:18:40;5.20;;;2.70;;
65009;SDS011;51556;50.002;22.014;2022-09-21T15:23:53;5.60;;;3.10;;
65009;SDS011;51556;50.002;22.014;2022-09-21T15:26:21;5.90;;;3.10;;
65009;SDS011;51556;50.002;22.014;2022-09-21T15:28:52;8.00;;;3.50;;
65009;SDS011;51556;50.002;22.014;2022-09-21T15:31:20;5.60;;;3.10;;
65009;SDS011;51556;50.002;22.014;2022-09-21T15:33:46;7.00;;;2.70;;
65009;SDS011;51556;50.002;22.014;2022-09-21T15:36:21;7.10;;;3.50;;
65009;SDS011;51556;50.002;22.014;2022-09-21T15:38:49;9.40;;;5.20;;
65009;SDS011;51556;50.002;22.014;2022-09-21T15:41:36;6.90;;;3.80;;
65009;SDS011;51556;50.002;22.014;2022-09-21T15:46:44;7.50;;;5.60;;
65009;SDS011;51556;50.002;22.014;2022-09-21T15:49:15;2.90;;;2.20;;
65009;SDS011;51556;50.002;22.014;2022-09-21T15:51:47;2.40;;;1.80;;
65009;SDS011;51556;50.002;22.014;2022-09-21T15:56:46;3.50;;;1.60;;
65009;SDS011;51556;50.002;22.014;2022-09-21T15:59:13;8.40;;;7.60;;
65009;SDS011;51556;50.002;22.014;2022-09-21T16:01:45;3.00;;;2.20;;
65009;SDS011;51556;50.002;22.014;2022-09-21T16:04:19;2.30;;;1.60;;
65009;SDS011;51556;50.002;22.014;2022-09-21T16:06:57;2.40;;;1.10;;
65009;SDS011;51556;50.002;22.014;2022-09-21T16:15:06;3.90;;;2.50;;
65009;SDS011;51556;50.002;22.014;2022-09-21T16:20:40;4.00;;;2.40;;
65009;SDS011;51556;50.002;22.014;2022-09-21T16:23:21;8.40;;;7.00;;
65009;SDS011;51556;50.002;22.014;2022-09-21T16:25:53;8.50;;;5.70;;
65009;SDS011;51556;50.002;22.014;2022-09-21T16:28:42;10.40;;;5.70;;
65009;SDS011;51556;50.002;22.014;2022-09-21T16:31:21;23.20;;;14.00;;
65009;SDS011;51556;50.002;22.014;2022-09-21T16:38:46;11.90;;;8.80;;
65009;SDS011;51556;50.002;22.014;2022-09-21T16:41:14;15.30;;;13.40;;
65009;SDS011;51556;50.002;22.014;2022-09-21T16:43:40;14.30;;;12.70;;
65009;SDS011;51556;50.002;22.014;2022-09-21T16:46:09;17.60;;;13.70;;
65009;SDS011;51556;50.002;22.014;2022-09-21T16:48:36;15.50;;;13.10;;
65009;SDS011;51556;50.002;22.014;2022-09-21T16:51:01;14.60;;;11.90;;
65009;SDS011;51556;50.002;22.014;2022-09-21T16:53:27;13.40;;;9.20;;
65009;SDS011;51556;50.002;22.014;2022-09-21T16:55:53;13.10;;;9.70;;
65009;SDS011;51556;50.002;22.014;2022-09-21T16:58:19;13.60;;;9.30;;
65009;SDS011;51556;50.002;22.014;2022-09-21T17:00:47;7.30;;;5.90;;
65009;SDS011;51556;50.002;22.014;2022-09-21T17:03:17;10.50;;;6.50;;
65009;SDS011;51556;50.002;22.014;2022-09-21T17:05:43;17.60;;;10.00;;
65009;SDS011;51556;50.002;22.014;2022-09-21T17:08:09;24.90;;;14.50;;
65009;SDS011;51556;50.002;22.014;2022-09-21T17:10:37;30.40;;;17.10;;
65009;SDS011;51556;50.002;22.014;2022-09-21T17:13:04;48.60;;;27.80;;
65009;SDS011;51556;50.002;22.014;2022-09-21T17:15:32;37.50;;;20.70;;
65009;SDS011;51556;50.002;22.014;2022-09-21T17:17:58;23.40;;;14.00;;
65009;SDS011;51556;50.002;22.014;2022-09-21T17:22:56;26.30;;;18.40;;
65009;SDS011;51556;50.002;22.014;2022-09-21T17:25:22;33.80;;;19.70;;
65009;SDS011;51556;50.002;22.014;2022-09-21T17:27:48;26.80;;;17.60;;
65009;SDS011;51556;50.002;22.014;2022-09-21T17:30:13;21.80;;;15.20;;
65009;SDS011;51556;50.002;22.014;2022-09-21T17:32:42;24.70;;;15.40;;
65009;SDS011;51556;50.002;22.014;2022-09-21T17:37:46;21.30;;;12.50;;
65009;SDS011;51556;50.002;22.014;2022-09-21T17:40:12;23.90;;;13.40;;
65009;SDS011;51556;50.002;22.014;2022-09-21T17:42:39;24.40;;;14.50;;
65009;SDS011;51556;50.002;22.014;2022-09-21T17:45:14;25.40;;;15.20;;
65009;SDS011;51556;50.002;22.014;2022-09-21T17:47:51;29.60;;;16.60;;
65009;SDS011;51556;50.002;22.014;2022-09-21T17:50:24;48.40;;;17.20;;
65009;SDS011;51556;50.002;22.014;2022-09-21T17:52:53;31.70;;;17.90;;
65009;SDS011;51556;50.002;22.014;2022-09-21T17:55:40;39.10;;;22.70;;
65009;SDS011;51556;50.002;22.014;2022-09-21T17:58:23;13.70;;;9.30;;
65009;SDS011;51556;50.002;22.014;2022-09-21T18:01:31;10.20;;;7.30;;
65009;SDS011;51556;50.002;22.014;2022-09-21T18:04:03;12.80;;;8.60;;
65009;SDS011;51556;50.002;22.014;2022-09-21T18:06:29;13.20;;;8.80;;
65009;SDS011;51556;50.002;22.014;2022-09-21T18:08:56;12.60;;;8.80;;
65009;SDS011;51556;50.002;22.014;2022-09-21T18:17:15;8.90;;;7.10;;
65009;SDS011;51556;50.002;22.014;2022-09-21T18:25:32;12.10;;;9.30;;
65009;SDS011;51556;50.002;22.014;2022-09-21T18:36:46;10.70;;;8.10;;
65009;SDS011;51556;50.002;22.014;2022-09-21T18:56:17;9.60;;;6.60;;
65009;SDS011;51556;50.002;22.014;2022-09-21T18:58:42;8.00;;;5.90;;
65009;SDS011;51556;50.002;22.014;2022-09-21T19:01:11;9.40;;;6.00;;
65009;SDS011;51556;50.002;22.014;2022-09-21T19:03:39;9.60;;;5.10;;
65009;SDS011;51556;50.002;22.014;2022-09-21T19:08:52;9.30;;;6.30;;
65009;SDS011;51556;50.002;22.014;2022-09-21T19:11:27;8.10;;;4.30;;
65009;SDS011;51556;50.002;22.014;2022-09-21T19:16:40;4.80;;;3.90;;
65009;SDS011;51556;50.002;22.014;2022-09-21T19:19:37;7.90;;;4.60;;
65009;SDS011;51556;50.002;22.014;2022-09-21T19:24:59;11.40;;;5.00;;
65009;SDS011;51556;50.002;22.014;2022-09-21T19:27:39;8.10;;;5.50;;
65009;SDS011;51556;50.002;22.014;2022-09-21T19:32:49;10.30;;;7.20;;